createdAt,value
2022-09-24T00:01:31.115Z,82.21
2022-09-24T00:04:00.980Z,82.34
2022-09-24T00:06:30.170Z,81.76
2022-09-24T00:08:57.930Z,83.00
2022-09-24T00:11:28.828Z,82.37
2022-09-24T00:13:57.434Z,83.21
2022-09-24T00:16:27.835Z,83.26
2022-09-24T00:18:55.867Z,83.44
2022-09-24T00:21:26.215Z,83.62
2022-09-24T00:23:56.612Z,84.62
2022-09-24T00:26:42.422Z,84.39
2022-09-24T00:29:15.146Z,83.92
2022-09-24T00:31:42.111Z,83.74
2022-09-24T00:34:09.244Z,83.60
2022-09-24T00:36:36.481Z,83.27
2022-09-24T00:39:06.051Z,83.60
2022-09-24T00:41:36.104Z,83.18
2022-09-24T00:44:43.924Z,82.84
2022-09-24T00:47:16.618Z,82.69
2022-09-24T00:49:44.994Z,83.25
2022-09-24T00:52:11.845Z,83.09
2022-09-24T00:54:38.946Z,83.57
2022-09-24T00:57:08.365Z,84.09
2022-09-24T00:59:35.856Z,83.45
2022-09-24T01:02:03.635Z,82.08
2022-09-24T01:04:30.531Z,82.08
2022-09-24T01:06:58.183Z,81.39
2022-09-24T01:09:29.067Z,81.52
2022-09-24T01:12:03.497Z,81.67
2022-09-24T01:14:57.741Z,81.29
2022-09-24T01:17:45.758Z,81.97
2022-09-24T01:20:26.091Z,82.42
2022-09-24T01:23:47.788Z,81.54
2022-09-24T01:26:48.187Z,81.65
2022-09-24T01:29:33.138Z,81.71
2022-09-24T01:32:11.015Z,81.13
2022-09-24T01:34:54.314Z,80.26
2022-09-24T01:37:24.691Z,79.70
2022-09-24T01:39:53.981Z,78.83
2022-09-24T01:42:23.856Z,78.60
2022-09-24T01:44:51.859Z,77.57
2022-09-24T01:47:30.938Z,77.05
2022-09-24T01:50:01.418Z,77.41
2022-09-24T01:52:36.219Z,78.35
2022-09-24T01:55:05.987Z,79.42
2022-09-24T01:57:40.288Z,79.76
2022-09-24T02:00:14.211Z,80.73
2022-09-24T02:02:50.311Z,80.79
2022-09-24T02:06:01.346Z,80.85
2022-09-24T02:08:39.187Z,80.51
2022-09-24T02:11:17.606Z,81.31
2022-09-24T02:13:56.889Z,80.54
2022-09-24T02:16:50.918Z,80.52
2022-09-24T02:19:23.502Z,80.50
2022-09-24T02:21:51.564Z,81.34
2022-09-24T02:24:33.683Z,80.20
2022-09-24T02:27:00.960Z,80.08
2022-09-24T02:29:27.801Z,79.61
2022-09-24T02:31:56.562Z,79.61
2022-09-24T02:34:36.969Z,79.61
2022-09-24T02:37:15.540Z,80.27
2022-09-24T02:39:42.850Z,79.53
2022-09-24T02:42:12.486Z,79.94
2022-09-24T02:44:39.024Z,79.92
2022-09-24T02:47:07.377Z,81.65
2022-09-24T02:49:34.039Z,81.56
2022-09-24T02:52:02.600Z,82.25
2022-09-24T02:54:29.251Z,82.68
2022-09-24T02:56:57.362Z,82.31
2022-09-24T02:59:24.061Z,82.24
2022-09-24T03:01:51.584Z,81.82
2022-09-24T03:04:18.377Z,81.55
2022-09-24T03:06:45.129Z,81.37
2022-09-24T03:09:13.223Z,81.29
2022-09-24T03:11:45.329Z,81.04
2022-09-24T03:14:12.747Z,81.28
2022-09-24T03:16:39.638Z,81.30
2022-09-24T03:19:07.373Z,81.22
2022-09-24T03:21:34.259Z,80.63
2022-09-24T03:24:01.314Z,80.93
2022-09-24T03:26:27.954Z,81.39
2022-09-24T03:28:54.681Z,82.71
2022-09-24T03:31:24.476Z,82.91
2022-09-24T03:33:52.255Z,82.65
2022-09-24T03:36:23.657Z,84.02
2022-09-24T03:38:54.701Z,84.27
2022-09-24T03:41:21.489Z,84.81
2022-09-24T03:43:48.431Z,84.88
2022-09-24T03:46:18.055Z,85.85
2022-09-24T03:48:45.440Z,86.40
2022-09-24T03:51:15.394Z,86.24
2022-09-24T03:53:42.988Z,86.45
2022-09-24T03:56:11.985Z,86.71
2022-09-24T03:58:39.527Z,87.04
2022-09-24T04:01:07.804Z,87.71
2022-09-24T04:03:34.847Z,87.84
2022-09-24T04:06:01.850Z,88.29
2022-09-24T04:08:28.667Z,87.91
2022-09-24T04:10:55.776Z,88.42
2022-09-24T04:13:22.701Z,88.01
2022-09-24T04:15:50.769Z,88.01
2022-09-24T04:18:18.826Z,88.27
2022-09-24T04:20:45.750Z,88.04
2022-09-24T04:23:13.147Z,88.40
2022-09-24T04:25:42.677Z,88.42
2022-09-24T04:28:10.582Z,89.04
2022-09-24T04:30:38.425Z,89.39
2022-09-24T04:33:06.014Z,88.25
2022-09-24T04:35:38.535Z,87.75
2022-09-24T04:38:06.723Z,86.89
2022-09-24T04:40:33.549Z,86.36
2022-09-24T04:43:00.203Z,86.35
2022-09-24T04:45:27.265Z,86.02
2022-09-24T04:47:58.121Z,85.77
2022-09-24T04:50:27.027Z,85.58
2022-09-24T04:52:54.658Z,85.44
2022-09-24T04:55:22.679Z,85.60
2022-09-24T04:57:50.738Z,85.82
2022-09-24T05:00:21.629Z,85.73
2022-09-24T05:02:55.717Z,85.88
2022-09-24T05:05:22.770Z,85.47
2022-09-24T05:07:49.957Z,85.41
2022-09-24T05:10:16.982Z,85.46
2022-09-24T05:12:43.622Z,85.20
2022-09-24T05:15:10.663Z,84.51
2022-09-24T05:17:40.482Z,83.90
2022-09-24T05:20:11.407Z,84.18
2022-09-24T05:22:45.822Z,84.69
2022-09-24T05:25:15.596Z,84.72
2022-09-24T05:27:50.055Z,84.84
2022-09-24T05:30:18.801Z,85.18
2022-09-24T05:32:46.637Z,85.49
2022-09-24T05:35:13.826Z,84.56
2022-09-24T05:37:40.856Z,85.00
2022-09-24T05:40:26.673Z,85.07
2022-09-24T05:43:04.414Z,85.75
2022-09-24T05:45:31.917Z,85.27
2022-09-24T05:48:00.428Z,85.62
2022-09-24T05:50:27.963Z,87.40
2022-09-24T05:52:55.080Z,87.76
2022-09-24T05:55:22.805Z,88.11
2022-09-24T05:57:49.625Z,87.94
2022-09-24T06:00:18.502Z,87.16
2022-09-24T06:02:45.448Z,87.75
2022-09-24T06:05:12.880Z,87.92
2022-09-24T06:07:39.834Z,87.96
2022-09-24T06:10:11.122Z,87.64
2022-09-24T06:12:38.642Z,87.46
2022-09-24T06:15:06.671Z,87.98
2022-09-24T06:17:33.484Z,87.40
2022-09-24T06:20:00.436Z,86.89
2022-09-24T06:22:29.226Z,87.80
2022-09-24T06:24:57.032Z,87.20
2022-09-24T06:27:23.948Z,86.81
2022-09-24T06:29:51.155Z,87.25
2022-09-24T06:32:20.098Z,86.98
2022-09-24T06:34:49.251Z,86.21
2022-09-24T06:37:16.197Z,86.54
2022-09-24T06:39:43.321Z,85.92
2022-09-24T06:42:10.243Z,85.29
2022-09-24T06:44:36.901Z,84.58
2022-09-24T06:47:03.639Z,85.12
2022-09-24T06:49:34.080Z,84.51
2022-09-24T06:52:01.369Z,84.85
2022-09-24T06:54:32.242Z,83.75
2022-09-24T06:56:59.940Z,83.96
2022-09-24T06:59:26.839Z,84.83
2022-09-24T07:01:54.140Z,84.37
2022-09-24T07:04:21.214Z,84.70
2022-09-24T07:07:23.547Z,84.36
2022-09-24T07:09:50.568Z,83.68
2022-09-24T07:12:18.887Z,84.69
2022-09-24T07:14:45.678Z,85.70
2022-09-24T07:17:12.901Z,84.24
2022-09-24T07:19:39.745Z,84.43
2022-09-24T07:22:06.910Z,84.77
2022-09-24T07:24:33.780Z,86.34
2022-09-24T07:27:00.661Z,85.56
2022-09-24T07:29:29.275Z,84.79
2022-09-24T07:31:57.298Z,84.81
2022-09-24T07:34:24.323Z,84.64
2022-09-24T07:36:51.100Z,83.41
2022-09-24T07:39:23.772Z,83.13
2022-09-24T07:41:52.447Z,84.08
2022-09-24T07:44:23.239Z,83.48
2022-09-24T07:46:50.689Z,83.81
2022-09-24T07:49:18.157Z,83.58
2022-09-24T07:51:49.515Z,84.34
2022-09-24T07:54:17.721Z,84.30
2022-09-24T07:56:44.977Z,83.31
2022-09-24T07:59:12.004Z,84.38
2022-09-24T08:01:40.126Z,84.31
2022-09-24T08:04:07.980Z,83.58
2022-09-24T08:06:39.542Z,83.23
2022-09-24T08:09:08.234Z,84.90
2022-09-24T08:11:34.858Z,84.63
2022-09-24T08:14:01.601Z,84.81
2022-09-24T08:16:29.454Z,83.11
2022-09-24T08:18:56.062Z,82.56
2022-09-24T08:24:10.010Z,81.39
2022-09-24T08:26:41.859Z,79.66
2022-09-24T08:29:14.816Z,79.39
2022-09-24T08:31:42.683Z,79.55
2022-09-24T08:34:09.502Z,77.41
2022-09-24T08:36:42.085Z,76.47
2022-09-24T08:39:17.476Z,74.61
2022-09-24T08:41:56.179Z,76.43
2022-09-24T08:44:56.860Z,76.26
2022-09-24T08:47:30.732Z,74.97
2022-09-24T08:50:20.864Z,75.21
2022-09-24T08:53:19.320Z,76.85
2022-09-24T08:55:52.779Z,75.55
2022-09-24T08:58:44.894Z,75.08
2022-09-24T09:01:17.756Z,73.12
2022-09-24T09:04:07.478Z,73.74
2022-09-24T09:06:42.276Z,73.42
2022-09-24T09:09:26.350Z,74.25
2022-09-24T09:12:05.458Z,72.61
2022-09-24T09:14:55.916Z,72.23
2022-09-24T09:17:47.293Z,68.86
2022-09-24T09:20:31.468Z,69.02
2022-09-24T09:23:04.103Z,69.98
2022-09-24T09:25:37.376Z,69.57
2022-09-24T09:28:17.648Z,68.50
2022-09-24T09:30:52.198Z,70.38
2022-09-24T09:33:32.467Z,71.75
2022-09-24T09:36:38.535Z,71.64
2022-09-24T09:39:37.541Z,72.62
2022-09-24T09:42:32.303Z,71.95
2022-09-24T09:45:27.858Z,71.38
2022-09-24T09:47:57.270Z,72.14
2022-09-24T09:50:26.997Z,71.36
2022-09-24T09:52:55.961Z,71.29
2022-09-24T09:55:37.050Z,71.59
2022-09-24T09:58:23.098Z,71.93
2022-09-24T10:00:51.287Z,72.55
2022-09-24T10:03:24.715Z,72.09
2022-09-24T10:05:57.018Z,73.20
2022-09-24T10:08:25.854Z,75.41
2022-09-24T10:10:55.669Z,74.47
2022-09-24T10:13:23.988Z,75.16
2022-09-24T10:15:55.279Z,74.76
2022-09-24T10:18:48.582Z,74.94
2022-09-24T19:21:28.682Z,91.03
2022-09-24T19:23:57.453Z,90.59
2022-09-24T19:26:32.127Z,90.40
2022-09-24T19:28:59.474Z,90.61
2022-09-24T19:31:36.782Z,91.21
2022-09-24T19:34:05.032Z,90.77
2022-09-24T19:36:37.434Z,91.44
2022-09-24T19:39:18.478Z,91.43
2022-09-24T19:41:45.332Z,91.63
2022-09-24T19:44:12.800Z,90.99
2022-09-24T19:46:40.027Z,91.87
2022-09-24T19:49:07.114Z,91.47
2022-09-24T19:51:36.398Z,92.22
2022-09-24T19:54:06.967Z,92.65
2022-09-24T19:56:34.649Z,92.43
2022-09-24T19:59:04.418Z,91.50
2022-09-24T20:01:57.181Z,91.43
2022-09-24T20:04:24.829Z,92.13
2022-09-24T20:06:51.401Z,92.00
2022-09-24T20:09:18.557Z,90.99
2022-09-24T20:11:45.665Z,90.21
2022-09-24T20:14:13.335Z,90.56
2022-09-24T20:16:42.951Z,91.30
2022-09-24T20:19:12.401Z,90.42
2022-09-24T20:21:44.322Z,91.67
2022-09-24T20:24:14.966Z,91.05
2022-09-24T20:27:00.090Z,91.55
2022-09-24T20:29:26.936Z,92.58
2022-09-24T20:31:55.793Z,92.26
2022-09-24T20:34:23.930Z,92.03
2022-09-24T20:36:51.679Z,93.29
2022-09-24T20:39:19.496Z,93.23
2022-09-24T20:41:46.638Z,93.02
2022-09-24T20:44:13.533Z,92.53
2022-09-24T20:46:42.719Z,93.40
2022-09-24T20:49:23.221Z,93.39
2022-09-24T20:51:57.821Z,94.27
2022-09-24T20:54:26.276Z,92.73
2022-09-24T20:56:53.039Z,94.07
2022-09-24T20:59:19.925Z,92.84
2022-09-24T21:01:48.212Z,93.61
2022-09-24T21:04:17.665Z,93.39
2022-09-24T21:06:44.415Z,94.17
2022-09-24T21:09:11.117Z,94.78
2022-09-24T21:11:38.374Z,95.51
2022-09-24T21:14:05.617Z,94.99
2022-09-24T21:16:34.694Z,95.59
2022-09-24T21:19:04.954Z,95.82
2022-09-24T21:21:35.277Z,95.63
2022-09-24T21:24:02.390Z,96.37
2022-09-24T21:26:32.667Z,95.94
2022-09-24T21:29:03.699Z,96.06
2022-09-24T21:31:32.901Z,95.94
2022-09-24T21:33:59.766Z,96.43
2022-09-24T21:36:29.756Z,96.88
2022-09-24T21:38:59.317Z,95.96
2022-09-24T21:41:29.478Z,95.78
2022-09-24T21:43:56.297Z,95.97
2022-09-24T21:46:26.094Z,96.16
2022-09-24T21:48:54.089Z,96.80
2022-09-24T21:51:22.124Z,97.01
2022-09-24T21:53:55.053Z,96.56
2022-09-24T21:56:22.279Z,96.88
2022-09-24T21:58:50.767Z,96.58
2022-09-24T22:01:26.092Z,96.47
2022-09-24T22:03:58.602Z,96.27
2022-09-24T22:06:28.973Z,96.33
2022-09-24T22:09:02.084Z,96.91
2022-09-24T22:11:29.024Z,95.91
2022-09-24T22:14:01.445Z,95.73
2022-09-24T22:16:30.207Z,96.42
2022-09-24T22:18:56.831Z,96.57
2022-09-24T22:21:23.879Z,96.67
2022-09-24T22:23:50.552Z,95.83
2022-09-24T22:26:18.804Z,96.75
2022-09-24T22:28:46.308Z,96.85
2022-09-24T22:31:16.463Z,96.31
2022-09-24T22:34:02.329Z,96.84
2022-09-24T22:36:31.737Z,96.55
2022-09-24T22:39:00.396Z,96.52
2022-09-24T22:41:29.281Z,96.01
2022-09-24T22:43:57.435Z,96.32
2022-09-24T22:46:27.668Z,96.66
2022-09-24T22:48:59.226Z,97.02
2022-09-24T22:51:28.673Z,96.32
2022-09-24T22:53:58.467Z,96.58
2022-09-24T22:56:26.825Z,96.71
2022-09-24T22:58:56.604Z,96.84
2022-09-24T23:01:32.398Z,96.74
2022-09-24T23:04:03.489Z,96.64
2022-09-24T23:06:31.989Z,96.42
2022-09-24T23:08:58.895Z,96.75
2022-09-24T23:11:31.455Z,96.90
2022-09-24T23:14:00.396Z,97.45
2022-09-24T23:16:33.679Z,97.51
2022-09-24T23:19:03.625Z,98.00
2022-09-24T23:21:31.684Z,98.45
2022-09-24T23:24:12.908Z,99.84
2022-09-24T23:26:39.666Z,99.94
2022-09-24T23:29:07.078Z,99.87
2022-09-24T23:31:41.591Z,100.00
2022-09-24T23:34:08.315Z,100.00
2022-09-24T23:36:36.237Z,100.00
2022-09-24T23:39:04.262Z,100.00
2022-09-24T23:41:32.191Z,100.00
2022-09-24T23:43:59.961Z,100.00
2022-09-24T23:46:27.682Z,100.00
2022-09-24T23:48:57.514Z,100.00
2022-09-24T23:51:24.469Z,100.00
2022-09-24T23:53:51.477Z,100.00
2022-09-24T23:56:19.127Z,100.00
2022-09-24T23:58:46.175Z,100.00
